sensor_id;sensor_type;location;lat;lon;timestamp;P1;durP1;ratioP1;P2;durP2;ratioP2
46593;SDS011;35342;52.378;4.648;2022-08-19T00:01:48;11.70;;;8.43;;
46593;SDS011;35342;52.378;4.648;2022-08-19T00:04:20;11.32;;;8.40;;
46593;SDS011;35342;52.378;4.648;2022-08-19T00:06:51;13.32;;;8.77;;
46593;SDS011;35342;52.378;4.648;2022-08-19T00:09:18;10.68;;;9.25;;
46593;SDS011;35342;52.378;4.648;2022-08-19T00:11:46;13.95;;;8.95;;
46593;SDS011;35342;52.378;4.648;2022-08-19T00:14:13;12.18;;;9.13;;
46593;SDS011;35342;52.378;4.648;2022-08-19T00:16:42;15.00;;;9.27;;
46593;SDS011;35342;52.378;4.648;2022-08-19T00:19:10;11.52;;;7.93;;
46593;SDS011;35342;52.378;4.648;2022-08-19T00:21:37;11.23;;;8.90;;
46593;SDS011;35342;52.378;4.648;2022-08-19T00:24:10;12.60;;;8.45;;
46593;SDS011;35342;52.378;4.648;2022-08-19T00:26:38;10.35;;;9.25;;
46593;SDS011;35342;52.378;4.648;2022-08-19T00:29:06;17.60;;;9.27;;
46593;SDS011;35342;52.378;4.648;2022-08-19T00:31:36;11.27;;;9.15;;
46593;SDS011;35342;52.378;4.648;2022-08-19T00:34:04;10.63;;;8.80;;
46593;SDS011;35342;52.378;4.648;2022-08-19T00:36:29;12.38;;;8.98;;
46593;SDS011;35342;52.378;4.648;2022-08-19T00:38:57;11.95;;;9.00;;
46593;SDS011;35342;52.378;4.648;2022-08-19T00:41:24;12.32;;;9.18;;
46593;SDS011;35342;52.378;4.648;2022-08-19T00:43:58;11.10;;;8.77;;
46593;SDS011;35342;52.378;4.648;2022-08-19T00:46:26;9.82;;;8.70;;
46593;SDS011;35342;52.378;4.648;2022-08-19T00:48:53;10.80;;;8.80;;
46593;SDS011;35342;52.378;4.648;2022-08-19T00:51:22;15.60;;;8.63;;
46593;SDS011;35342;52.378;4.648;2022-08-19T00:53:50;10.75;;;8.82;;
46593;SDS011;35342;52.378;4.648;2022-08-19T00:56:16;13.32;;;8.77;;
46593;SDS011;35342;52.378;4.648;2022-08-19T00:58:43;9.32;;;8.23;;
46593;SDS011;35342;52.378;4.648;2022-08-19T01:01:09;9.80;;;8.73;;
46593;SDS011;35342;52.378;4.648;2022-08-19T01:03:35;9.73;;;8.15;;
46593;SDS011;35342;52.378;4.648;2022-08-19T01:06:01;10.63;;;8.32;;
46593;SDS011;35342;52.378;4.648;2022-08-19T01:08:27;11.77;;;8.63;;
46593;SDS011;35342;52.378;4.648;2022-08-19T01:10:54;11.32;;;8.93;;
46593;SDS011;35342;52.378;4.648;2022-08-19T01:13:25;11.32;;;8.57;;
46593;SDS011;35342;52.378;4.648;2022-08-19T01:15:56;12.35;;;8.82;;
46593;SDS011;35342;52.378;4.648;2022-08-19T01:18:30;14.77;;;8.80;;
46593;SDS011;35342;52.378;4.648;2022-08-19T01:21:05;12.50;;;8.52;;
46593;SDS011;35342;52.378;4.648;2022-08-19T01:23:45;15.43;;;8.73;;
46593;SDS011;35342;52.378;4.648;2022-08-19T01:26:14;12.90;;;8.15;;
46593;SDS011;35342;52.378;4.648;2022-08-19T01:28:48;11.48;;;8.15;;
46593;SDS011;35342;52.378;4.648;2022-08-19T01:31:18;9.10;;;7.70;;
46593;SDS011;35342;52.378;4.648;2022-08-19T01:33:49;15.82;;;8.52;;
46593;SDS011;35342;52.378;4.648;2022-08-19T01:36:26;15.80;;;9.77;;
46593;SDS011;35342;52.378;4.648;2022-08-19T01:39:08;10.90;;;8.75;;
46593;SDS011;35342;52.378;4.648;2022-08-19T01:41:37;13.68;;;8.82;;
46593;SDS011;35342;52.378;4.648;2022-08-19T01:44:05;13.88;;;9.77;;
46593;SDS011;35342;52.378;4.648;2022-08-19T01:46:33;12.85;;;9.02;;
46593;SDS011;35342;52.378;4.648;2022-08-19T01:48:59;13.15;;;8.32;;
46593;SDS011;35342;52.378;4.648;2022-08-19T01:51:27;12.48;;;9.02;;
46593;SDS011;35342;52.378;4.648;2022-08-19T01:53:53;9.98;;;8.77;;
46593;SDS011;35342;52.378;4.648;2022-08-19T01:56:19;14.57;;;9.38;;
46593;SDS011;35342;52.378;4.648;2022-08-19T01:59:00;11.60;;;8.98;;
46593;SDS011;35342;52.378;4.648;2022-08-19T02:01:32;9.93;;;8.20;;
46593;SDS011;35342;52.378;4.648;2022-08-19T02:03:58;13.55;;;8.18;;
46593;SDS011;35342;52.378;4.648;2022-08-19T02:06:25;13.70;;;9.05;;
46593;SDS011;35342;52.378;4.648;2022-08-19T02:08:52;8.90;;;7.45;;
46593;SDS011;35342;52.378;4.648;2022-08-19T02:11:25;15.43;;;8.43;;
46593;SDS011;35342;52.378;4.648;2022-08-19T02:13:59;12.32;;;7.70;;
46593;SDS011;35342;52.378;4.648;2022-08-19T02:16:30;12.85;;;8.38;;
46593;SDS011;35342;52.378;4.648;2022-08-19T02:18:57;10.07;;;7.15;;
46593;SDS011;35342;52.378;4.648;2022-08-19T02:21:25;14.60;;;8.48;;
46593;SDS011;35342;52.378;4.648;2022-08-19T02:23:53;10.35;;;7.45;;
46593;SDS011;35342;52.378;4.648;2022-08-19T02:26:18;13.05;;;8.02;;
46593;SDS011;35342;52.378;4.648;2022-08-19T02:28:44;9.80;;;8.00;;
46593;SDS011;35342;52.378;4.648;2022-08-19T02:31:18;15.82;;;9.23;;
46593;SDS011;35342;52.378;4.648;2022-08-19T02:33:46;13.05;;;8.10;;
46593;SDS011;35342;52.378;4.648;2022-08-19T02:36:13;14.00;;;7.47;;
46593;SDS011;35342;52.378;4.648;2022-08-19T02:38:41;10.18;;;8.52;;
46593;SDS011;35342;52.378;4.648;2022-08-19T02:41:16;10.80;;;8.00;;
46593;SDS011;35342;52.378;4.648;2022-08-19T02:43:45;12.98;;;9.48;;
46593;SDS011;35342;52.378;4.648;2022-08-19T02:46:22;14.48;;;9.18;;
46593;SDS011;35342;52.378;4.648;2022-08-19T02:48:54;13.77;;;10.02;;
46593;SDS011;35342;52.378;4.648;2022-08-19T02:51:27;17.27;;;9.02;;
46593;SDS011;35342;52.378;4.648;2022-08-19T02:54:06;14.85;;;9.32;;
46593;SDS011;35342;52.378;4.648;2022-08-19T02:56:34;13.00;;;9.75;;
46593;SDS011;35342;52.378;4.648;2022-08-19T02:59:02;12.35;;;9.90;;
46593;SDS011;35342;52.378;4.648;2022-08-19T03:04:05;14.25;;;9.70;;
46593;SDS011;35342;52.378;4.648;2022-08-19T03:06:38;13.13;;;10.55;;
46593;SDS011;35342;52.378;4.648;2022-08-19T03:09:06;16.08;;;11.18;;
46593;SDS011;35342;52.378;4.648;2022-08-19T03:11:33;13.48;;;11.38;;
46593;SDS011;35342;52.378;4.648;2022-08-19T03:13:59;14.77;;;10.82;;
46593;SDS011;35342;52.378;4.648;2022-08-19T03:16:27;14.48;;;10.75;;
46593;SDS011;35342;52.378;4.648;2022-08-19T03:18:56;13.70;;;11.23;;
46593;SDS011;35342;52.378;4.648;2022-08-19T03:21:27;15.88;;;11.85;;
46593;SDS011;35342;52.378;4.648;2022-08-19T03:23:56;16.85;;;11.93;;
46593;SDS011;35342;52.378;4.648;2022-08-19T03:26:24;16.73;;;11.98;;
46593;SDS011;35342;52.378;4.648;2022-08-19T03:28:50;14.07;;;11.07;;
46593;SDS011;35342;52.378;4.648;2022-08-19T03:31:20;15.65;;;13.15;;
46593;SDS011;35342;52.378;4.648;2022-08-19T03:33:48;15.70;;;11.90;;
46593;SDS011;35342;52.378;4.648;2022-08-19T03:36:17;17.00;;;13.60;;
46593;SDS011;35342;52.378;4.648;2022-08-19T03:38:49;21.20;;;14.55;;
46593;SDS011;35342;52.378;4.648;2022-08-19T03:41:23;19.07;;;14.90;;
46593;SDS011;35342;52.378;4.648;2022-08-19T03:43:58;19.88;;;14.95;;
46593;SDS011;35342;52.378;4.648;2022-08-19T03:46:28;23.08;;;15.40;;
46593;SDS011;35342;52.378;4.648;2022-08-19T03:48:57;18.80;;;15.23;;
46593;SDS011;35342;52.378;4.648;2022-08-19T03:51:30;20.25;;;15.45;;
46593;SDS011;35342;52.378;4.648;2022-08-19T03:54:00;23.70;;;17.25;;
46593;SDS011;35342;52.378;4.648;2022-08-19T03:56:29;21.48;;;16.50;;
46593;SDS011;35342;52.378;4.648;2022-08-19T03:58:56;20.33;;;15.52;;
46593;SDS011;35342;52.378;4.648;2022-08-19T04:01:25;25.50;;;15.57;;
46593;SDS011;35342;52.378;4.648;2022-08-19T04:03:53;30.63;;;18.58;;
46593;SDS011;35342;52.378;4.648;2022-08-19T04:06:25;21.85;;;17.00;;
46593;SDS011;35342;52.378;4.648;2022-08-19T04:08:55;24.80;;;18.08;;
46593;SDS011;35342;52.378;4.648;2022-08-19T04:11:25;25.65;;;16.33;;
46593;SDS011;35342;52.378;4.648;2022-08-19T04:13:53;26.17;;;17.20;;
46593;SDS011;35342;52.378;4.648;2022-08-19T04:16:21;23.38;;;16.77;;
46593;SDS011;35342;52.378;4.648;2022-08-19T04:18:53;23.42;;;16.98;;
46593;SDS011;35342;52.378;4.648;2022-08-19T04:21:24;26.35;;;16.38;;
46593;SDS011;35342;52.378;4.648;2022-08-19T04:23:51;27.83;;;17.23;;
46593;SDS011;35342;52.378;4.648;2022-08-19T04:26:19;25.45;;;17.63;;
46593;SDS011;35342;52.378;4.648;2022-08-19T04:28:48;25.15;;;16.58;;
46593;SDS011;35342;52.378;4.648;2022-08-19T04:31:18;24.85;;;17.02;;
46593;SDS011;35342;52.378;4.648;2022-08-19T04:33:46;24.35;;;17.20;;
46593;SDS011;35342;52.378;4.648;2022-08-19T04:36:21;27.75;;;16.88;;
46593;SDS011;35342;52.378;4.648;2022-08-19T04:38:53;27.88;;;16.67;;
46593;SDS011;35342;52.378;4.648;2022-08-19T04:41:23;27.30;;;17.67;;
46593;SDS011;35342;52.378;4.648;2022-08-19T04:44:08;33.88;;;17.80;;
46593;SDS011;35342;52.378;4.648;2022-08-19T04:46:35;29.80;;;17.70;;
46593;SDS011;35342;52.378;4.648;2022-08-19T04:49:02;30.17;;;18.38;;
46593;SDS011;35342;52.378;4.648;2022-08-19T04:51:30;30.50;;;19.90;;
46593;SDS011;35342;52.378;4.648;2022-08-19T04:53:57;32.97;;;18.88;;
46593;SDS011;35342;52.378;4.648;2022-08-19T04:56:24;28.13;;;18.27;;
46593;SDS011;35342;52.378;4.648;2022-08-19T04:58:52;28.92;;;17.63;;
46593;SDS011;35342;52.378;4.648;2022-08-19T05:01:21;25.60;;;18.30;;
46593;SDS011;35342;52.378;4.648;2022-08-19T05:03:56;34.55;;;19.38;;
46593;SDS011;35342;52.378;4.648;2022-08-19T05:06:23;33.63;;;18.92;;
46593;SDS011;35342;52.378;4.648;2022-08-19T05:08:50;33.00;;;18.70;;
46593;SDS011;35342;52.378;4.648;2022-08-19T05:11:17;29.42;;;17.85;;
46593;SDS011;35342;52.378;4.648;2022-08-19T05:13:53;31.15;;;18.17;;
46593;SDS011;35342;52.378;4.648;2022-08-19T05:16:21;26.58;;;17.55;;
46593;SDS011;35342;52.378;4.648;2022-08-19T05:18:49;29.73;;;17.63;;
46593;SDS011;35342;52.378;4.648;2022-08-19T05:21:34;26.25;;;17.40;;
46593;SDS011;35342;52.378;4.648;2022-08-19T05:24:20;32.47;;;17.63;;
46593;SDS011;35342;52.378;4.648;2022-08-19T05:26:48;27.30;;;18.48;;
46593;SDS011;35342;52.378;4.648;2022-08-19T05:29:19;30.33;;;17.73;;
46593;SDS011;35342;52.378;4.648;2022-08-19T05:31:47;26.05;;;16.95;;
46593;SDS011;35342;52.378;4.648;2022-08-19T05:34:19;28.30;;;16.23;;
46593;SDS011;35342;52.378;4.648;2022-08-19T05:36:49;27.63;;;17.60;;
46593;SDS011;35342;52.378;4.648;2022-08-19T05:39:22;26.45;;;17.38;;
46593;SDS011;35342;52.378;4.648;2022-08-19T05:41:53;29.17;;;18.20;;
46593;SDS011;35342;52.378;4.648;2022-08-19T05:44:23;28.27;;;17.15;;
46593;SDS011;35342;52.378;4.648;2022-08-19T05:46:59;29.45;;;18.05;;
46593;SDS011;35342;52.378;4.648;2022-08-19T05:49:28;30.25;;;17.65;;
46593;SDS011;35342;52.378;4.648;2022-08-19T05:51:57;26.70;;;18.35;;
46593;SDS011;35342;52.378;4.648;2022-08-19T05:54:24;37.30;;;18.85;;
46593;SDS011;35342;52.378;4.648;2022-08-19T05:56:51;26.85;;;18.33;;
46593;SDS011;35342;52.378;4.648;2022-08-19T05:59:18;32.22;;;16.88;;
46593;SDS011;35342;52.378;4.648;2022-08-19T06:01:46;27.75;;;18.23;;
46593;SDS011;35342;52.378;4.648;2022-08-19T06:04:15;25.25;;;17.05;;
46593;SDS011;35342;52.378;4.648;2022-08-19T06:06:46;26.35;;;18.52;;
46593;SDS011;35342;52.378;4.648;2022-08-19T06:09:14;28.45;;;17.00;;
46593;SDS011;35342;52.378;4.648;2022-08-19T06:11:41;27.90;;;17.55;;
46593;SDS011;35342;52.378;4.648;2022-08-19T06:14:18;32.05;;;18.10;;
46593;SDS011;35342;52.378;4.648;2022-08-19T06:16:48;23.02;;;16.70;;
46593;SDS011;35342;52.378;4.648;2022-08-19T06:19:16;24.83;;;16.08;;
46593;SDS011;35342;52.378;4.648;2022-08-19T06:21:46;25.60;;;17.65;;
46593;SDS011;35342;52.378;4.648;2022-08-19T06:24:16;30.15;;;18.45;;
46593;SDS011;35342;52.378;4.648;2022-08-19T06:26:48;31.45;;;17.85;;
46593;SDS011;35342;52.378;4.648;2022-08-19T06:29:17;25.60;;;17.10;;
46593;SDS011;35342;52.378;4.648;2022-08-19T06:31:47;35.42;;;16.98;;
46593;SDS011;35342;52.378;4.648;2022-08-19T06:34:17;20.10;;;15.27;;
46593;SDS011;35342;52.378;4.648;2022-08-19T06:36:45;35.83;;;18.25;;
46593;SDS011;35342;52.378;4.648;2022-08-19T06:39:17;25.80;;;16.52;;
46593;SDS011;35342;52.378;4.648;2022-08-19T06:41:52;22.80;;;14.73;;
46593;SDS011;35342;52.378;4.648;2022-08-19T06:44:23;23.77;;;14.60;;
46593;SDS011;35342;52.378;4.648;2022-08-19T06:46:53;21.60;;;14.65;;
46593;SDS011;35342;52.378;4.648;2022-08-19T06:49:20;25.65;;;15.10;;
46593;SDS011;35342;52.378;4.648;2022-08-19T06:51:48;20.23;;;14.07;;
46593;SDS011;35342;52.378;4.648;2022-08-19T06:54:15;24.42;;;15.20;;
46593;SDS011;35342;52.378;4.648;2022-08-19T06:56:43;25.13;;;15.65;;
46593;SDS011;35342;52.378;4.648;2022-08-19T06:59:12;21.38;;;14.07;;
46593;SDS011;35342;52.378;4.648;2022-08-19T07:01:46;21.77;;;13.65;;
46593;SDS011;35342;52.378;4.648;2022-08-19T07:04:16;17.70;;;12.55;;
46593;SDS011;35342;52.378;4.648;2022-08-19T07:06:46;22.02;;;13.18;;
46593;SDS011;35342;52.378;4.648;2022-08-19T07:09:14;17.70;;;11.65;;
46593;SDS011;35342;52.378;4.648;2022-08-19T07:11:46;18.08;;;12.43;;
46593;SDS011;35342;52.378;4.648;2022-08-19T07:14:20;21.45;;;12.20;;
46593;SDS011;35342;52.378;4.648;2022-08-19T07:16:50;22.13;;;11.55;;
46593;SDS011;35342;52.378;4.648;2022-08-19T07:19:19;16.48;;;10.45;;
46593;SDS011;35342;52.378;4.648;2022-08-19T07:21:50;14.27;;;9.48;;
46593;SDS011;35342;52.378;4.648;2022-08-19T07:24:18;16.50;;;9.68;;
46593;SDS011;35342;52.378;4.648;2022-08-19T07:26:49;21.15;;;9.98;;
46593;SDS011;35342;52.378;4.648;2022-08-19T07:29:16;11.07;;;8.38;;
46593;SDS011;35342;52.378;4.648;2022-08-19T07:31:42;14.45;;;9.07;;
46593;SDS011;35342;52.378;4.648;2022-08-19T07:34:09;15.50;;;8.68;;
46593;SDS011;35342;52.378;4.648;2022-08-19T07:36:39;14.82;;;8.25;;
46593;SDS011;35342;52.378;4.648;2022-08-19T07:39:10;17.40;;;6.78;;
46593;SDS011;35342;52.378;4.648;2022-08-19T07:41:46;13.45;;;5.93;;
46593;SDS011;35342;52.378;4.648;2022-08-19T07:44:13;12.48;;;5.97;;
46593;SDS011;35342;52.378;4.648;2022-08-19T07:46:42;12.60;;;5.95;;
46593;SDS011;35342;52.378;4.648;2022-08-19T07:49:12;9.63;;;4.68;;
46593;SDS011;35342;52.378;4.648;2022-08-19T07:52:04;10.50;;;4.00;;
46593;SDS011;35342;52.378;4.648;2022-08-19T07:54:34;11.70;;;3.55;;
46593;SDS011;35342;52.378;4.648;2022-08-19T07:57:04;5.90;;;3.70;;
46593;SDS011;35342;52.378;4.648;2022-08-19T07:59:31;13.07;;;3.85;;
46593;SDS011;35342;52.378;4.648;2022-08-19T08:01:57;10.32;;;3.88;;
46593;SDS011;35342;52.378;4.648;2022-08-19T08:04:25;7.03;;;3.00;;
46593;SDS011;35342;52.378;4.648;2022-08-19T08:07:11;15.38;;;3.03;;
46593;SDS011;35342;52.378;4.648;2022-08-19T08:09:55;10.82;;;3.03;;
46593;SDS011;35342;52.378;4.648;2022-08-19T08:12:26;8.02;;;3.47;;
46593;SDS011;35342;52.378;4.648;2022-08-19T08:14:59;10.07;;;3.50;;
46593;SDS011;35342;52.378;4.648;2022-08-19T08:17:29;6.93;;;2.70;;
46593;SDS011;35342;52.378;4.648;2022-08-19T08:19:57;6.80;;;3.05;;
46593;SDS011;35342;52.378;4.648;2022-08-19T08:22:23;6.78;;;3.33;;
46593;SDS011;35342;52.378;4.648;2022-08-19T08:25:12;8.82;;;3.10;;
46593;SDS011;35342;52.378;4.648;2022-08-19T08:27:45;6.43;;;3.75;;
46593;SDS011;35342;52.378;4.648;2022-08-19T08:30:22;5.43;;;3.20;;
46593;SDS011;35342;52.378;4.648;2022-08-19T08:32:50;4.55;;;2.83;;
46593;SDS011;35342;52.378;4.648;2022-08-19T08:35:19;6.78;;;3.50;;
46593;SDS011;35342;52.378;4.648;2022-08-19T08:37:48;7.20;;;3.22;;
46593;SDS011;35342;52.378;4.648;2022-08-19T08:40:18;6.82;;;3.05;;
46593;SDS011;35342;52.378;4.648;2022-08-19T08:46:00;5.72;;;2.45;;
46593;SDS011;35342;52.378;4.648;2022-08-19T08:51:10;7.90;;;3.45;;
46593;SDS011;35342;52.378;4.648;2022-08-19T08:53:46;6.18;;;2.75;;
46593;SDS011;35342;52.378;4.648;2022-08-19T08:56:14;4.75;;;2.67;;
46593;SDS011;35342;52.378;4.648;2022-08-19T08:58:51;10.27;;;3.17;;
46593;SDS011;35342;52.378;4.648;2022-08-19T09:01:33;6.05;;;3.13;;
46593;SDS011;35342;52.378;4.648;2022-08-19T09:04:02;6.55;;;2.50;;
46593;SDS011;35342;52.378;4.648;2022-08-19T09:06:40;9.70;;;2.95;;
46593;SDS011;35342;52.378;4.648;2022-08-19T09:09:18;7.20;;;2.65;;
46593;SDS011;35342;52.378;4.648;2022-08-19T09:14:55;6.47;;;3.03;;
46593;SDS011;35342;52.378;4.648;2022-08-19T09:17:33;7.18;;;3.25;;
46593;SDS011;35342;52.378;4.648;2022-08-19T09:20:02;9.77;;;2.95;;
46593;SDS011;35342;52.378;4.648;2022-08-19T09:22:39;6.20;;;2.97;;
46593;SDS011;35342;52.378;4.648;2022-08-19T09:25:12;8.43;;;2.80;;
46593;SDS011;35342;52.378;4.648;2022-08-19T09:27:41;8.25;;;3.63;;
46593;SDS011;35342;52.378;4.648;2022-08-19T09:30:08;5.68;;;2.70;;
46593;SDS011;35342;52.378;4.648;2022-08-19T09:32:41;4.28;;;2.63;;
46593;SDS011;35342;52.378;4.648;2022-08-19T09:35:11;4.68;;;2.63;;
46593;SDS011;35342;52.378;4.648;2022-08-19T09:37:38;6.25;;;2.95;;
46593;SDS011;35342;52.378;4.648;2022-08-19T09:40:04;6.70;;;3.03;;
46593;SDS011;35342;52.378;4.648;2022-08-19T09:42:32;4.18;;;2.20;;
46593;SDS011;35342;52.378;4.648;2022-08-19T09:44:58;8.00;;;3.05;;
46593;SDS011;35342;52.378;4.648;2022-08-19T09:47:28;4.68;;;2.30;;
46593;SDS011;35342;52.378;4.648;2022-08-19T09:49:54;6.97;;;2.80;;
46593;SDS011;35342;52.378;4.648;2022-08-19T09:52:20;3.63;;;2.50;;
46593;SDS011;35342;52.378;4.648;2022-08-19T09:54:51;6.22;;;2.33;;
46593;SDS011;35342;52.378;4.648;2022-08-19T09:57:18;9.68;;;3.20;;
46593;SDS011;35342;52.378;4.648;2022-08-19T09:59:44;5.28;;;2.45;;
46593;SDS011;35342;52.378;4.648;2022-08-19T10:02:10;7.53;;;3.00;;
46593;SDS011;35342;52.378;4.648;2022-08-19T10:04:36;8.20;;;2.85;;
46593;SDS011;35342;52.378;4.648;2022-08-19T10:07:21;6.80;;;2.40;;
46593;SDS011;35342;52.378;4.648;2022-08-19T10:09:47;8.18;;;3.00;;
46593;SDS011;35342;52.378;4.648;2022-08-19T10:12:12;3.58;;;2.03;;
46593;SDS011;35342;52.378;4.648;2022-08-19T10:14:40;6.53;;;2.97;;
46593;SDS011;35342;52.378;4.648;2022-08-19T10:17:06;5.85;;;1.92;;
46593;SDS011;35342;52.378;4.648;2022-08-19T10:19:34;7.63;;;1.98;;
46593;SDS011;35342;52.378;4.648;2022-08-19T10:22:07;3.47;;;1.83;;
46593;SDS011;35342;52.378;4.648;2022-08-19T10:24:38;6.85;;;1.70;;
46593;SDS011;35342;52.378;4.648;2022-08-19T10:27:04;5.38;;;2.10;;
46593;SDS011;35342;52.378;4.648;2022-08-19T10:29:31;4.45;;;2.08;;
46593;SDS011;35342;52.378;4.648;2022-08-19T10:32:00;5.55;;;2.35;;
46593;SDS011;35342;52.378;4.648;2022-08-19T10:34:29;4.40;;;2.00;;
46593;SDS011;35342;52.378;4.648;2022-08-19T10:36:59;14.23;;;3.00;;
46593;SDS011;35342;52.378;4.648;2022-08-19T10:39:25;5.35;;;1.90;;
46593;SDS011;35342;52.378;4.648;2022-08-19T10:41:53;10.88;;;2.42;;
46593;SDS011;35342;52.378;4.648;2022-08-19T10:44:21;6.75;;;1.80;;
46593;SDS011;35342;52.378;4.648;2022-08-19T10:46:48;3.90;;;2.05;;
46593;SDS011;35342;52.378;4.648;2022-08-19T10:49:14;2.70;;;1.70;;
46593;SDS011;35342;52.378;4.648;2022-08-19T10:51:41;3.47;;;1.70;;
46593;SDS011;35342;52.378;4.648;2022-08-19T10:54:26;5.32;;;1.83;;
46593;SDS011;35342;52.378;4.648;2022-08-19T10:57:12;8.82;;;2.30;;
46593;SDS011;35342;52.378;4.648;2022-08-19T10:59:39;3.75;;;1.77;;
46593;SDS011;35342;52.378;4.648;2022-08-19T11:02:07;9.93;;;2.33;;
46593;SDS011;35342;52.378;4.648;2022-08-19T11:04:36;3.00;;;1.95;;
46593;SDS011;35342;52.378;4.648;2022-08-19T11:07:04;4.35;;;1.80;;
46593;SDS011;35342;52.378;4.648;2022-08-19T11:09:36;5.75;;;2.03;;
46593;SDS011;35342;52.378;4.648;2022-08-19T11:12:06;3.85;;;2.10;;
46593;SDS011;35342;52.378;4.648;2022-08-19T11:14:35;6.43;;;1.90;;
46593;SDS011;35342;52.378;4.648;2022-08-19T11:17:02;3.10;;;2.00;;
46593;SDS011;35342;52.378;4.648;2022-08-19T11:19:30;4.00;;;1.77;;
46593;SDS011;35342;52.378;4.648;2022-08-19T11:21:56;2.92;;;1.88;;
46593;SDS011;35342;52.378;4.648;2022-08-19T11:24:23;4.03;;;1.55;;
46593;SDS011;35342;52.378;4.648;2022-08-19T11:26:54;8.85;;;2.28;;
46593;SDS011;35342;52.378;4.648;2022-08-19T11:29:26;4.93;;;1.80;;
46593;SDS011;35342;52.378;4.648;2022-08-19T11:31:52;5.18;;;1.50;;
46593;SDS011;35342;52.378;4.648;2022-08-19T11:34:20;3.45;;;1.35;;
46593;SDS011;35342;52.378;4.648;2022-08-19T11:36:49;2.70;;;1.45;;
46593;SDS011;35342;52.378;4.648;2022-08-19T11:39:18;2.10;;;1.30;;
46593;SDS011;35342;52.378;4.648;2022-08-19T11:41:46;3.70;;;1.20;;
46593;SDS011;35342;52.378;4.648;2022-08-19T11:44:13;2.45;;;1.30;;
46593;SDS011;35342;52.378;4.648;2022-08-19T11:46:39;2.58;;;1.38;;
46593;SDS011;35342;52.378;4.648;2022-08-19T11:49:11;2.92;;;1.15;;
46593;SDS011;35342;52.378;4.648;2022-08-19T11:51:44;5.05;;;2.10;;
46593;SDS011;35342;52.378;4.648;2022-08-19T11:54:13;4.63;;;1.35;;
46593;SDS011;35342;52.378;4.648;2022-08-19T11:56:41;3.45;;;1.58;;
46593;SDS011;35342;52.378;4.648;2022-08-19T11:59:08;4.70;;;1.67;;
46593;SDS011;35342;52.378;4.648;2022-08-19T12:01:35;2.67;;;1.20;;
46593;SDS011;35342;52.378;4.648;2022-08-19T12:04:04;5.93;;;1.08;;
46593;SDS011;35342;52.378;4.648;2022-08-19T12:06:31;3.20;;;1.35;;
46593;SDS011;35342;52.378;4.648;2022-08-19T12:09:06;7.40;;;1.30;;
46593;SDS011;35342;52.378;4.648;2022-08-19T12:11:35;2.72;;;0.90;;
46593;SDS011;35342;52.378;4.648;2022-08-19T12:14:04;2.28;;;0.82;;
46593;SDS011;35342;52.378;4.648;2022-08-19T12:16:31;3.38;;;1.30;;
46593;SDS011;35342;52.378;4.648;2022-08-19T12:18:57;3.15;;;0.98;;
46593;SDS011;35342;52.378;4.648;2022-08-19T12:21:28;2.45;;;1.30;;
46593;SDS011;35342;52.378;4.648;2022-08-19T12:23:57;2.40;;;0.90;;
46593;SDS011;35342;52.378;4.648;2022-08-19T12:26:27;2.95;;;0.90;;
46593;SDS011;35342;52.378;4.648;2022-08-19T12:28:54;4.10;;;1.35;;
46593;SDS011;35342;52.378;4.648;2022-08-19T12:31:20;3.65;;;1.00;;
46593;SDS011;35342;52.378;4.648;2022-08-19T12:33:47;1.73;;;0.70;;
46593;SDS011;35342;52.378;4.648;2022-08-19T12:36:13;3.67;;;1.30;;
46593;SDS011;35342;52.378;4.648;2022-08-19T12:38:42;2.75;;;1.02;;
46593;SDS011;35342;52.378;4.648;2022-08-19T12:41:10;2.65;;;0.80;;
46593;SDS011;35342;52.378;4.648;2022-08-19T12:43:40;1.88;;;0.80;;
46593;SDS011;35342;52.378;4.648;2022-08-19T12:46:07;1.02;;;0.55;;
46593;SDS011;35342;52.378;4.648;2022-08-19T12:48:34;2.10;;;0.90;;
46593;SDS011;35342;52.378;4.648;2022-08-19T12:51:00;1.48;;;0.65;;
46593;SDS011;35342;52.378;4.648;2022-08-19T12:53:32;1.67;;;0.80;;
46593;SDS011;35342;52.378;4.648;2022-08-19T12:55:59;2.47;;;0.65;;
46593;SDS011;35342;52.378;4.648;2022-08-19T12:58:25;1.98;;;0.90;;
46593;SDS011;35342;52.378;4.648;2022-08-19T13:00:53;3.13;;;1.10;;
46593;SDS011;35342;52.378;4.648;2022-08-19T13:03:25;5.00;;;1.30;;
46593;SDS011;35342;52.378;4.648;2022-08-19T13:05:57;2.28;;;0.80;;
46593;SDS011;35342;52.378;4.648;2022-08-19T13:08:23;3.85;;;0.95;;
46593;SDS011;35342;52.378;4.648;2022-08-19T13:10:48;1.85;;;1.05;;
46593;SDS011;35342;52.378;4.648;2022-08-19T13:13:14;4.65;;;0.93;;
46593;SDS011;35342;52.378;4.648;2022-08-19T13:15:42;1.25;;;0.68;;
46593;SDS011;35342;52.378;4.648;2022-08-19T13:18:10;1.42;;;0.70;;
46593;SDS011;35342;52.378;4.648;2022-08-19T13:20:40;1.90;;;0.90;;
46593;SDS011;35342;52.378;4.648;2022-08-19T13:23:07;1.58;;;0.75;;
46593;SDS011;35342;52.378;4.648;2022-08-19T13:25:35;3.90;;;0.57;;
46593;SDS011;35342;52.378;4.648;2022-08-19T13:28:01;2.92;;;0.95;;
46593;SDS011;35342;52.378;4.648;2022-08-19T13:30:28;4.65;;;0.90;;
46593;SDS011;35342;52.378;4.648;2022-08-19T13:33:13;1.17;;;0.70;;
46593;SDS011;35342;52.378;4.648;2022-08-19T13:35:41;1.33;;;0.70;;
46593;SDS011;35342;52.378;4.648;2022-08-19T13:38:23;0.90;;;0.90;;
46593;SDS011;35342;52.378;4.648;2022-08-19T13:40:50;3.25;;;1.25;;
46593;SDS011;35342;52.378;4.648;2022-08-19T13:43:19;1.75;;;0.82;;
46593;SDS011;35342;52.378;4.648;2022-08-19T13:45:47;3.58;;;0.90;;
46593;SDS011;35342;52.378;4.648;2022-08-19T13:48:20;2.42;;;1.00;;
46593;SDS011;35342;52.378;4.648;2022-08-19T13:50:51;1.95;;;1.05;;
46593;SDS011;35342;52.378;4.648;2022-08-19T13:53:20;2.88;;;0.90;;
46593;SDS011;35342;52.378;4.648;2022-08-19T13:55:46;2.70;;;1.10;;
46593;SDS011;35342;52.378;4.648;2022-08-19T13:58:13;3.08;;;1.30;;
46593;SDS011;35342;52.378;4.648;2022-08-19T14:00:42;2.47;;;1.67;;
46593;SDS011;35342;52.378;4.648;2022-08-19T14:03:11;3.17;;;1.33;;
46593;SDS011;35342;52.378;4.648;2022-08-19T14:05:38;4.85;;;1.20;;
46593;SDS011;35342;52.378;4.648;2022-08-19T14:08:04;2.50;;;1.10;;
46593;SDS011;35342;52.378;4.648;2022-08-19T14:10:30;3.90;;;1.20;;
46593;SDS011;35342;52.378;4.648;2022-08-19T14:12:57;2.03;;;0.90;;
46593;SDS011;35342;52.378;4.648;2022-08-19T14:15:27;1.98;;;1.30;;
46593;SDS011;35342;52.378;4.648;2022-08-19T14:17:54;1.35;;;0.90;;
46593;SDS011;35342;52.378;4.648;2022-08-19T14:20:21;2.80;;;1.02;;
46593;SDS011;35342;52.378;4.648;2022-08-19T14:22:48;6.40;;;1.17;;
46593;SDS011;35342;52.378;4.648;2022-08-19T14:25:17;1.67;;;1.00;;
46593;SDS011;35342;52.378;4.648;2022-08-19T14:27:46;1.55;;;0.90;;
46593;SDS011;35342;52.378;4.648;2022-08-19T14:30:14;2.40;;;1.30;;
46593;SDS011;35342;52.378;4.648;2022-08-19T14:32:44;2.10;;;1.00;;
46593;SDS011;35342;52.378;4.648;2022-08-19T14:35:11;1.60;;;1.02;;
46593;SDS011;35342;52.378;4.648;2022-08-19T14:37:43;1.73;;;1.17;;
46593;SDS011;35342;52.378;4.648;2022-08-19T14:40:11;1.25;;;0.82;;
46593;SDS011;35342;52.378;4.648;2022-08-19T14:42:45;1.92;;;0.80;;
46593;SDS011;35342;52.378;4.648;2022-08-19T14:45:12;4.15;;;1.13;;
46593;SDS011;35342;52.378;4.648;2022-08-19T14:47:38;1.17;;;0.85;;
46593;SDS011;35342;52.378;4.648;2022-08-19T14:50:08;3.47;;;1.35;;
46593;SDS011;35342;52.378;4.648;2022-08-19T14:52:36;1.48;;;0.70;;
46593;SDS011;35342;52.378;4.648;2022-08-19T14:55:03;3.70;;;0.93;;
46593;SDS011;35342;52.378;4.648;2022-08-19T14:57:29;1.50;;;0.80;;
46593;SDS011;35342;52.378;4.648;2022-08-19T14:59:55;1.90;;;0.80;;
46593;SDS011;35342;52.378;4.648;2022-08-19T15:02:22;2.45;;;1.05;;